createdAt,value
2023-01-28T00:01:33.451Z,43.20
2023-01-28T00:04:01.709Z,43.10
2023-01-28T00:06:30.067Z,42.90
2023-01-28T00:08:58.393Z,43.00
2023-01-28T00:11:27.880Z,43.10
2023-01-28T00:13:56.470Z,43.30
2023-01-28T00:16:27.198Z,43.40
2023-01-28T00:18:55.780Z,43.40
2023-01-28T00:21:24.169Z,43.30
2023-01-28T00:23:55.033Z,43.20
2023-01-28T00:26:25.227Z,43.50
2023-01-28T00:28:55.035Z,43.10
2023-01-28T00:31:25.790Z,43.10
2023-01-28T00:33:56.627Z,43.30
2023-01-28T00:36:26.336Z,43.20
2023-01-28T00:38:56.040Z,43.50
2023-01-28T00:41:26.040Z,43.40
2023-01-28T00:43:56.126Z,43.60
2023-01-28T00:46:25.333Z,43.50
2023-01-28T00:48:54.489Z,43.10
2023-01-28T00:51:23.059Z,43.50
2023-01-28T00:53:51.517Z,43.60
2023-01-28T00:56:20.821Z,43.90
2023-01-28T00:58:49.404Z,43.70
2023-01-28T01:01:21.418Z,43.50
2023-01-28T01:03:57.558Z,43.70
2023-01-28T01:06:26.539Z,43.50
2023-01-28T01:08:54.764Z,43.60
2023-01-28T01:11:23.153Z,43.70
2023-01-28T01:13:52.647Z,44.60
2023-01-28T01:16:23.223Z,44.50
2023-01-28T01:18:52.738Z,44.40
2023-01-28T01:21:23.004Z,44.10
2023-01-28T01:23:51.923Z,43.80
2023-01-28T01:26:20.775Z,43.50
2023-01-28T01:28:49.179Z,43.60
2023-01-28T01:31:19.431Z,44.10
2023-01-28T01:33:51.612Z,44.10
2023-01-28T01:36:22.027Z,43.70
2023-01-28T01:38:54.666Z,43.50
2023-01-28T01:41:27.932Z,43.50
2023-01-28T01:44:00.838Z,43.50
2023-01-28T01:46:35.894Z,44.60
2023-01-28T01:49:16.792Z,44.80
2023-01-28T01:51:46.351Z,44.60
2023-01-28T01:54:15.563Z,44.40
2023-01-28T01:56:45.660Z,44.40
2023-01-28T01:59:16.967Z,44.10
2023-01-28T02:01:46.673Z,44.20
2023-01-28T02:04:22.978Z,44.30
2023-01-28T02:06:51.218Z,44.30
2023-01-28T02:09:26.142Z,44.40
2023-01-28T02:11:56.929Z,44.30
2023-01-28T02:14:31.699Z,44.60
2023-01-28T02:17:01.501Z,44.50
2023-01-28T02:19:38.947Z,44.40
2023-01-28T02:22:30.944Z,44.90
2023-01-28T02:25:33.741Z,45.30
2023-01-28T02:28:24.830Z,45.50
2023-01-28T02:30:58.968Z,45.30
2023-01-28T02:33:34.447Z,44.50
2023-01-28T02:36:11.957Z,44.60
2023-01-28T02:38:46.917Z,44.60
2023-01-28T02:41:21.792Z,44.70
2023-01-28T02:43:52.044Z,44.90
2023-01-28T02:46:41.605Z,45.10
2023-01-28T02:49:13.581Z,45.20
2023-01-28T02:51:52.917Z,45.20
2023-01-28T02:54:30.896Z,44.90
2023-01-28T02:57:08.303Z,44.80
2023-01-28T02:59:49.528Z,44.80
2023-01-28T03:02:24.560Z,45.00
2023-01-28T03:05:01.331Z,45.30
2023-01-28T03:07:32.443Z,45.20
2023-01-28T03:10:04.447Z,45.30
2023-01-28T03:12:51.165Z,45.40
2023-01-28T03:15:43.077Z,45.50
2023-01-28T03:18:36.350Z,45.70
2023-01-28T03:21:28.635Z,45.50
2023-01-28T03:24:18.632Z,45.90
2023-01-28T03:27:13.198Z,46.20
2023-01-28T03:30:02.153Z,45.90
2023-01-28T03:32:52.210Z,46.20
2023-01-28T03:35:41.983Z,46.30
2023-01-28T03:38:22.823Z,46.50
2023-01-28T03:40:53.581Z,46.40
2023-01-28T03:43:21.986Z,47.00
2023-01-28T03:45:51.391Z,47.10
2023-01-28T03:48:21.746Z,47.20
2023-01-28T03:50:50.086Z,47.40
2023-01-28T03:53:18.687Z,47.40
2023-01-28T03:55:50.555Z,47.80
2023-01-28T03:58:19.690Z,48.50
2023-01-28T04:00:48.449Z,48.00
2023-01-28T04:03:19.451Z,48.40
2023-01-28T04:06:02.362Z,48.50
2023-01-28T04:08:52.683Z,48.90
2023-01-28T04:11:29.842Z,49.30
2023-01-28T04:13:59.453Z,49.50
2023-01-28T04:16:32.613Z,49.50
2023-01-28T04:19:02.355Z,49.40
2023-01-28T04:21:32.160Z,49.50
2023-01-28T04:24:02.022Z,49.60
2023-01-28T04:26:30.862Z,49.50
2023-01-28T04:28:59.738Z,49.70
2023-01-28T04:31:28.270Z,50.00
2023-01-28T04:34:20.390Z,50.50
2023-01-28T04:37:18.995Z,50.80
2023-01-28T04:40:08.325Z,50.70
2023-01-28T04:42:44.499Z,51.00
2023-01-28T04:45:23.682Z,51.50
2023-01-28T04:48:11.786Z,52.00
2023-01-28T04:51:01.447Z,52.50
2023-01-28T04:53:38.027Z,52.70
2023-01-28T04:56:24.506Z,53.10
2023-01-28T04:58:52.819Z,53.00
2023-01-28T05:01:21.001Z,53.10
2023-01-28T05:03:49.660Z,53.10
2023-01-28T05:06:26.191Z,53.10
2023-01-28T05:09:02.304Z,53.10
2023-01-28T05:11:31.568Z,53.10
2023-01-28T05:14:04.277Z,53.90
2023-01-28T05:16:40.540Z,53.10
2023-01-28T05:19:09.542Z,53.10
2023-01-28T05:21:41.581Z,53.20
2023-01-28T05:24:24.441Z,53.10
2023-01-28T05:26:52.677Z,53.10
2023-01-28T05:29:21.316Z,53.20
2023-01-28T05:31:49.969Z,53.10
2023-01-28T05:34:18.961Z,53.20
2023-01-28T05:36:47.179Z,54.10
2023-01-28T05:39:34.639Z,54.70
2023-01-28T05:42:02.895Z,54.60
2023-01-28T05:44:33.689Z,54.50
2023-01-28T05:47:20.169Z,55.20
2023-01-28T05:49:50.962Z,55.20
2023-01-28T05:52:44.971Z,55.40
2023-01-28T05:55:28.003Z,55.10
2023-01-28T05:57:56.418Z,54.90
2023-01-28T06:00:27.392Z,55.20
2023-01-28T06:02:56.888Z,55.80
2023-01-28T06:05:25.623Z,54.90
2023-01-28T06:07:54.148Z,54.80
2023-01-28T06:10:22.476Z,54.30
2023-01-28T06:12:52.261Z,54.40
2023-01-28T06:15:46.522Z,54.50
2023-01-28T06:18:35.247Z,54.60
2023-01-28T06:21:05.332Z,54.70
2023-01-28T06:23:33.532Z,55.10
2023-01-28T06:26:02.336Z,54.90
2023-01-28T06:28:32.099Z,54.60
2023-01-28T06:31:00.596Z,54.70
2023-01-28T06:33:29.555Z,54.90
2023-01-28T06:35:57.898Z,55.20
2023-01-28T06:38:26.553Z,55.10
2023-01-28T06:40:56.323Z,55.10
2023-01-28T06:43:27.760Z,55.10
2023-01-28T06:45:57.583Z,54.80
2023-01-28T06:48:25.914Z,54.50
2023-01-28T06:50:55.219Z,53.80
2023-01-28T06:53:23.524Z,53.30
2023-01-28T06:55:51.740Z,53.60
2023-01-28T06:58:20.138Z,53.30
2023-01-28T07:00:48.617Z,53.80
2023-01-28T07:03:18.390Z,53.80
2023-01-28T07:05:46.666Z,54.10
2023-01-28T07:08:14.903Z,54.20
2023-01-28T07:10:43.183Z,54.40
2023-01-28T07:13:11.788Z,54.50
2023-01-28T07:15:40.056Z,54.70
2023-01-28T07:18:08.394Z,54.80
2023-01-28T07:20:38.157Z,54.90
2023-01-28T07:23:06.583Z,55.00
2023-01-28T07:25:34.859Z,55.10
2023-01-28T07:28:03.076Z,55.10
2023-01-28T07:30:31.479Z,55.40
2023-01-28T07:33:00.971Z,55.10
2023-01-28T07:35:29.754Z,55.00
2023-01-28T07:38:00.982Z,55.00
2023-01-28T07:40:29.879Z,55.20
2023-01-28T07:42:58.292Z,55.30
2023-01-28T07:45:30.502Z,56.00
2023-01-28T07:48:00.071Z,56.00
2023-01-28T07:50:30.080Z,56.40
2023-01-28T07:52:59.988Z,56.40
2023-01-28T07:55:31.163Z,57.30
2023-01-28T07:58:00.982Z,56.40
2023-01-28T08:00:31.699Z,56.80
2023-01-28T08:03:01.820Z,57.00
2023-01-28T08:05:39.207Z,56.70
2023-01-28T08:08:09.648Z,56.80
2023-01-28T08:10:38.905Z,57.20
2023-01-28T08:13:08.483Z,57.30
2023-01-28T08:15:36.872Z,57.30
2023-01-28T08:18:08.805Z,57.90
2023-01-28T08:20:37.538Z,57.50
2023-01-28T08:23:09.445Z,57.70
2023-01-28T08:25:37.777Z,57.80
2023-01-28T08:28:07.493Z,57.70
2023-01-28T08:30:37.922Z,57.60
2023-01-28T08:33:07.291Z,57.60
2023-01-28T08:35:36.367Z,57.60
2023-01-28T08:38:06.323Z,57.40
2023-01-28T08:40:36.724Z,57.30
2023-01-28T08:43:05.085Z,57.50
2023-01-28T08:45:33.937Z,57.90
2023-01-28T08:48:03.688Z,58.00
2023-01-28T08:50:34.017Z,58.20
2023-01-28T08:53:03.947Z,58.40
2023-01-28T08:55:32.897Z,58.30
2023-01-28T08:58:05.572Z,58.50
2023-01-28T09:00:35.079Z,58.50
2023-01-28T09:03:05.850Z,58.40
2023-01-28T09:05:36.298Z,58.30
2023-01-28T09:08:04.780Z,58.40
2023-01-28T09:10:32.970Z,59.00
2023-01-28T09:13:07.877Z,58.90
2023-01-28T09:15:37.738Z,58.50
2023-01-28T09:18:06.274Z,58.80
2023-01-28T09:20:34.842Z,58.00
2023-01-28T09:23:04.077Z,58.60
2023-01-28T09:25:32.549Z,58.50
2023-01-28T09:28:00.764Z,58.30
2023-01-28T09:30:30.611Z,58.10
2023-01-28T09:32:59.562Z,57.40
2023-01-28T09:35:27.789Z,57.00
2023-01-28T09:37:58.631Z,57.10
2023-01-28T09:40:34.263Z,57.00
2023-01-28T09:43:32.471Z,56.20
2023-01-28T09:46:05.956Z,56.30
2023-01-28T09:48:38.213Z,55.90
2023-01-28T09:51:11.400Z,55.90
2023-01-28T09:53:44.490Z,55.70
2023-01-28T09:56:17.055Z,55.60
2023-01-28T09:58:45.510Z,55.40
2023-01-28T10:01:36.056Z,55.40
2023-01-28T10:04:13.287Z,55.10
2023-01-28T10:06:52.100Z,54.80
2023-01-28T10:09:28.885Z,55.10
2023-01-28T10:12:13.086Z,54.60
2023-01-28T10:14:52.704Z,54.80
2023-01-28T10:17:27.138Z,54.80
2023-01-28T10:19:59.806Z,54.50
2023-01-28T10:22:32.956Z,55.30
2023-01-28T10:25:07.244Z,55.70
2023-01-28T10:27:38.366Z,55.80
2023-01-28T10:30:18.813Z,55.50
2023-01-28T10:32:53.655Z,55.60
2023-01-28T10:35:22.724Z,56.20
2023-01-28T10:37:51.371Z,56.90
2023-01-28T10:40:20.374Z,56.20
2023-01-28T10:42:48.844Z,55.80
2023-01-28T10:45:21.468Z,56.40
2023-01-28T10:47:55.576Z,56.90
2023-01-28T10:50:25.829Z,56.50
2023-01-28T10:52:55.594Z,55.60
2023-01-28T10:55:25.302Z,55.80
2023-01-28T10:57:54.557Z,55.60
2023-01-28T11:00:30.833Z,55.60
2023-01-28T11:03:01.471Z,55.30
2023-01-28T11:05:31.552Z,56.00
2023-01-28T11:08:13.613Z,55.30
2023-01-28T11:10:42.653Z,55.70
2023-01-28T11:13:17.932Z,55.60
2023-01-28T11:15:50.657Z,55.60
2023-01-28T11:18:25.529Z,55.30
2023-01-28T11:20:57.135Z,54.80
2023-01-28T11:23:28.585Z,54.50
2023-01-28T11:26:06.891Z,54.70
2023-01-28T11:28:35.976Z,54.80
2023-01-28T11:31:05.558Z,55.00
2023-01-28T11:33:39.531Z,54.60
2023-01-28T11:36:13.760Z,54.90
2023-01-28T11:38:51.628Z,53.60
2023-01-28T11:41:28.292Z,53.60
2023-01-28T11:43:59.592Z,53.50
2023-01-28T11:46:51.094Z,53.60
2023-01-28T11:49:30.866Z,53.50
2023-01-28T11:52:08.715Z,53.60
2023-01-28T11:54:48.639Z,53.50
2023-01-28T11:57:25.393Z,53.50
2023-01-28T12:00:23.861Z,54.30
2023-01-28T12:02:58.839Z,53.50
2023-01-28T12:05:45.431Z,53.50
2023-01-28T12:08:23.240Z,53.50
2023-01-28T12:11:07.810Z,53.50
2023-01-28T12:13:47.629Z,53.20
2023-01-28T12:16:38.120Z,52.90
2023-01-28T12:19:21.937Z,53.10
2023-01-28T12:22:16.360Z,52.90
2023-01-28T12:24:56.877Z,52.80
2023-01-28T12:27:38.474Z,51.30
2023-01-28T12:30:20.352Z,50.70
2023-01-28T12:32:59.379Z,51.00
2023-01-28T12:35:56.398Z,51.60
2023-01-28T12:38:35.003Z,51.40
2023-01-28T12:41:08.729Z,50.50
2023-01-28T12:43:47.304Z,50.60
2023-01-28T12:46:26.285Z,50.70
2023-01-28T12:49:00.046Z,50.60
2023-01-28T12:51:34.081Z,49.90
2023-01-28T12:54:12.773Z,50.50
2023-01-28T12:56:45.581Z,50.20
2023-01-28T12:59:17.989Z,49.70
2023-01-28T13:01:52.955Z,49.10
2023-01-28T13:04:32.264Z,47.90
2023-01-28T13:07:05.304Z,48.20
2023-01-28T13:09:39.509Z,48.10
2023-01-28T13:12:08.413Z,48.40
2023-01-28T13:14:36.965Z,48.20
2023-01-28T13:17:12.385Z,48.50
2023-01-28T13:19:42.632Z,48.60
2023-01-28T13:22:27.688Z,48.10
2023-01-28T13:24:57.504Z,48.20
2023-01-28T13:27:27.259Z,46.10
2023-01-28T13:30:08.384Z,47.30
2023-01-28T13:32:37.311Z,46.90
2023-01-28T13:35:08.987Z,45.60
2023-01-28T13:37:40.181Z,45.50
2023-01-28T13:40:25.027Z,45.90
2023-01-28T13:43:02.750Z,45.00
2023-01-28T13:45:31.618Z,45.30
2023-01-28T13:48:06.924Z,45.50
2023-01-28T13:50:40.950Z,44.80
2023-01-28T13:53:23.476Z,43.00
2023-01-28T13:55:56.579Z,43.80
2023-01-28T13:58:47.134Z,43.60
2023-01-28T14:01:50.803Z,43.80
2023-01-28T14:04:50.214Z,44.30
2023-01-28T14:07:52.163Z,44.30
2023-01-28T14:10:50.067Z,44.30
2023-01-28T14:13:34.941Z,44.80
2023-01-28T14:16:20.946Z,43.90
2023-01-28T14:18:50.879Z,43.80
2023-01-28T14:21:22.010Z,43.70
2023-01-28T14:23:52.403Z,42.80
2023-01-28T14:26:40.799Z,43.20
2023-01-28T14:29:29.075Z,43.10
2023-01-28T14:31:57.512Z,42.80
2023-01-28T14:34:30.576Z,42.10
2023-01-28T14:37:02.693Z,42.00
2023-01-28T14:39:33.356Z,42.20
2023-01-28T14:42:03.591Z,42.00
2023-01-28T14:44:35.703Z,42.70
2023-01-28T14:47:17.203Z,43.10
2023-01-28T14:49:59.270Z,43.30
2023-01-28T14:52:46.316Z,43.50
2023-01-28T14:55:28.799Z,43.90
2023-01-28T14:57:59.722Z,43.90
2023-01-28T15:00:31.576Z,43.70
2023-01-28T15:02:59.949Z,43.70
2023-01-28T15:05:29.967Z,43.60
2023-01-28T15:07:58.467Z,43.60
2023-01-28T15:10:29.734Z,43.70
2023-01-28T15:13:01.664Z,43.30
2023-01-28T15:15:34.873Z,43.40
2023-01-28T15:18:06.791Z,43.10
2023-01-28T15:20:35.158Z,42.90
2023-01-28T15:23:07.506Z,43.20
2023-01-28T15:25:35.877Z,42.20
2023-01-28T15:28:04.188Z,42.70
2023-01-28T15:30:33.979Z,42.70
2023-01-28T15:33:05.419Z,42.70
2023-01-28T15:35:34.593Z,42.60
2023-01-28T15:38:04.558Z,43.00
2023-01-28T15:40:43.018Z,43.10
2023-01-28T15:43:19.259Z,43.50
2023-01-28T15:45:50.724Z,43.50
2023-01-28T15:48:19.455Z,43.10
2023-01-28T15:50:48.527Z,43.50
2023-01-28T15:53:16.836Z,42.60
2023-01-28T15:55:46.036Z,41.90
2023-01-28T15:58:19.493Z,43.30
2023-01-28T16:00:50.471Z,42.80
2023-01-28T16:03:22.035Z,42.70
2023-01-28T16:06:02.192Z,41.40
2023-01-28T16:08:39.364Z,42.10
2023-01-28T16:11:09.247Z,41.20
2023-01-28T16:13:43.691Z,41.10
2023-01-28T16:16:13.918Z,42.20
2023-01-28T16:18:47.470Z,42.30
2023-01-28T16:21:23.936Z,41.30
2023-01-28T16:23:53.974Z,41.70
2023-01-28T16:26:24.614Z,41.20
2023-01-28T16:28:53.013Z,41.20
2023-01-28T16:31:22.962Z,41.10
2023-01-28T16:33:51.175Z,41.10
2023-01-28T16:36:19.790Z,41.10
2023-01-28T16:38:48.175Z,41.10
2023-01-28T16:41:24.991Z,41.10
2023-01-28T16:43:53.229Z,41.70
2023-01-28T16:46:22.776Z,41.00
2023-01-28T16:48:50.939Z,41.30
2023-01-28T16:51:20.923Z,41.00
2023-01-28T16:53:50.722Z,41.10
2023-01-28T16:56:45.314Z,41.10
2023-01-28T16:59:11.586Z,41.10
2023-01-28T17:01:41.345Z,41.10
2023-01-28T17:04:11.951Z,41.10
2023-01-28T17:06:42.971Z,41.10
2023-01-28T17:09:13.022Z,41.10
2023-01-28T17:11:41.818Z,41.10
2023-01-28T17:14:10.719Z,41.10
2023-01-28T17:16:40.518Z,41.10
2023-01-28T17:19:08.740Z,41.10
2023-01-28T17:21:37.818Z,41.10
2023-01-28T17:24:06.810Z,41.50
2023-01-28T17:26:36.567Z,41.70
2023-01-28T17:29:06.003Z,41.00
2023-01-28T17:31:34.861Z,41.00
2023-01-28T17:34:06.951Z,41.40
2023-01-28T17:36:35.422Z,41.40
2023-01-28T17:39:03.809Z,41.00
2023-01-28T17:41:32.205Z,40.90
2023-01-28T17:44:00.752Z,41.70
2023-01-28T17:46:28.900Z,41.70
2023-01-28T17:48:57.249Z,42.10
2023-01-28T17:51:26.783Z,41.40
2023-01-28T17:53:55.044Z,42.10
2023-01-28T17:56:26.604Z,42.30
2023-01-28T17:58:56.976Z,41.60
2023-01-28T18:01:27.839Z,40.90
2023-01-28T18:03:56.608Z,40.90
2023-01-28T18:06:26.165Z,40.90
2023-01-28T18:08:55.071Z,40.90
2023-01-28T18:11:23.261Z,41.60
2023-01-28T18:13:51.513Z,41.00
2023-01-28T18:16:20.791Z,41.70
2023-01-28T18:18:50.357Z,40.90
2023-01-28T18:21:24.138Z,40.90
2023-01-28T18:23:56.759Z,40.90
2023-01-28T18:26:24.989Z,41.10
2023-01-28T18:28:53.165Z,41.00
2023-01-28T18:31:21.788Z,40.90
2023-01-28T18:33:50.314Z,40.80
2023-01-28T18:36:18.569Z,41.40
2023-01-28T18:38:46.940Z,40.70
2023-01-28T18:41:16.807Z,40.70
2023-01-28T18:43:47.566Z,41.10
2023-01-28T18:46:18.139Z,41.40
2023-01-28T18:48:46.445Z,41.40
2023-01-28T18:51:28.780Z,40.80
2023-01-28T18:53:59.053Z,40.70
2023-01-28T18:56:29.163Z,41.30
2023-01-28T18:58:58.588Z,41.10
2023-01-28T19:01:27.451Z,40.60
2023-01-28T19:03:57.609Z,40.60
2023-01-28T19:06:26.600Z,41.20
2023-01-28T19:08:56.054Z,40.60
2023-01-28T19:11:26.092Z,40.60
2023-01-28T19:13:55.842Z,40.70
2023-01-28T19:16:24.189Z,40.70
2023-01-28T19:18:54.196Z,40.60
2023-01-28T19:21:22.908Z,40.70
2023-01-28T19:23:56.626Z,39.80
2023-01-28T19:26:25.660Z,40.60
2023-01-28T19:28:56.193Z,40.60
2023-01-28T19:31:25.843Z,40.70
2023-01-28T19:34:01.033Z,40.70
2023-01-28T19:36:32.587Z,39.70
2023-01-28T19:39:01.979Z,39.70
2023-01-28T19:41:30.624Z,39.60
2023-01-28T19:44:00.537Z,39.70
2023-01-28T19:46:29.292Z,39.80
2023-01-28T19:48:57.611Z,39.80
2023-01-28T19:51:26.476Z,39.80
2023-01-28T19:53:56.140Z,39.70
2023-01-28T19:56:25.972Z,39.40
2023-01-28T19:58:55.640Z,39.20
2023-01-28T20:01:30.208Z,38.80
2023-01-28T20:04:00.559Z,39.00
2023-01-28T20:06:30.367Z,39.30
2023-01-28T20:09:01.412Z,39.70
2023-01-28T20:11:29.883Z,39.20
2023-01-28T20:13:59.830Z,39.10
2023-01-28T20:16:31.010Z,40.10
2023-01-28T20:19:01.548Z,39.80
2023-01-28T20:21:30.736Z,39.40
2023-01-28T20:24:00.689Z,39.50
2023-01-28T20:26:31.284Z,39.90
2023-01-28T20:29:01.631Z,39.90
2023-01-28T20:31:32.720Z,39.80
2023-01-28T20:34:01.555Z,39.80
2023-01-28T20:36:29.811Z,39.70
2023-01-28T20:38:58.451Z,39.80
2023-01-28T20:41:27.894Z,39.80
2023-01-28T20:43:57.154Z,39.40
2023-01-28T20:46:27.683Z,39.10
2023-01-28T20:48:58.992Z,39.20
2023-01-28T20:51:29.950Z,39.00
2023-01-28T20:54:00.514Z,39.10
2023-01-28T20:56:30.041Z,37.80
2023-01-28T20:59:00.027Z,38.00
2023-01-28T21:01:30.227Z,37.70
2023-01-28T21:03:59.970Z,38.80
2023-01-28T21:06:28.748Z,38.50
2023-01-28T21:08:57.329Z,38.00
2023-01-28T21:11:27.219Z,37.80
2023-01-28T21:13:56.105Z,37.80
2023-01-28T21:16:24.861Z,37.80
2023-01-28T21:18:53.160Z,37.10
2023-01-28T21:21:24.469Z,37.10
2023-01-28T21:23:54.726Z,36.80
2023-01-28T21:26:23.155Z,36.90
2023-01-28T21:28:51.574Z,36.90
2023-01-28T21:31:21.421Z,36.60
2023-01-28T21:33:50.354Z,37.20
2023-01-28T21:36:19.422Z,36.80
2023-01-28T21:38:53.988Z,36.10
2023-01-28T21:41:22.547Z,36.40
2023-01-28T21:43:53.335Z,36.50
2023-01-28T21:46:21.788Z,36.00
2023-01-28T21:48:50.335Z,36.50
2023-01-28T21:51:37.883Z,35.70
2023-01-28T21:54:10.966Z,36.20
2023-01-28T21:56:39.312Z,36.40
2023-01-28T21:59:25.375Z,36.40
2023-01-28T22:01:53.673Z,36.70
2023-01-28T22:04:22.291Z,36.90
2023-01-28T22:06:50.496Z,36.40
2023-01-28T22:09:20.017Z,36.70
2023-01-28T22:11:48.294Z,35.40
2023-01-28T22:14:17.121Z,36.40
2023-01-28T22:16:45.569Z,36.30
2023-01-28T22:19:14.845Z,35.90
2023-01-28T22:21:45.808Z,35.90
2023-01-28T22:24:16.052Z,36.00
2023-01-28T22:26:46.506Z,35.30
2023-01-28T22:29:16.031Z,36.20
2023-01-28T22:31:46.744Z,35.60
2023-01-28T22:34:15.091Z,35.80
2023-01-28T22:36:44.009Z,36.30
2023-01-28T22:39:15.450Z,35.20
2023-01-28T22:41:45.885Z,34.90
2023-01-28T22:44:14.372Z,34.40
2023-01-28T22:46:42.873Z,34.50
2023-01-28T22:49:12.315Z,34.50
2023-01-28T22:51:40.467Z,34.50
2023-01-28T22:54:09.166Z,35.50
2023-01-28T22:56:37.435Z,34.00
2023-01-28T22:59:07.429Z,34.30
2023-01-28T23:01:36.740Z,34.80
2023-01-28T23:04:04.981Z,34.60
2023-01-28T23:06:33.780Z,34.80
2023-01-28T23:09:02.109Z,34.70
2023-01-28T23:11:30.421Z,34.40
2023-01-28T23:14:18.905Z,34.20
2023-01-28T23:17:06.461Z,34.20
2023-01-28T23:19:52.676Z,34.70
2023-01-28T23:22:41.647Z,35.10
2023-01-28T23:25:10.912Z,34.60
2023-01-28T23:27:39.248Z,34.90
2023-01-28T23:30:10.075Z,35.50
2023-01-28T23:32:41.211Z,35.00
2023-01-28T23:35:10.511Z,35.10
2023-01-28T23:37:39.199Z,34.40
2023-01-28T23:40:08.653Z,34.60
2023-01-28T23:42:36.876Z,33.50
2023-01-28T23:45:05.928Z,33.50
2023-01-28T23:47:34.304Z,33.50
2023-01-28T23:50:04.389Z,33.70
2023-01-28T23:52:32.663Z,34.10
2023-01-28T23:55:00.885Z,34.10
2023-01-28T23:57:29.153Z,34.00
2023-01-28T23:59:57.427Z,34.10
